createdAt,value
2023-03-16T00:01:02.983Z,51.65
2023-03-16T00:03:31.644Z,55.72
2023-03-16T00:06:00.210Z,50.70
2023-03-16T00:08:28.176Z,53.15
2023-03-16T00:10:56.317Z,57.50
2023-03-16T00:13:25.682Z,53.47
2023-03-16T00:16:01.925Z,57.15
2023-03-16T00:18:30.940Z,68.15
2023-03-16T00:21:02.463Z,64.20
2023-03-16T00:23:35.620Z,50.85
2023-03-16T00:26:08.350Z,52.05
2023-03-16T00:28:37.027Z,60.65
2023-03-16T00:31:11.990Z,67.55
2023-03-16T00:33:42.907Z,56.15
2023-03-16T00:36:11.731Z,50.83
2023-03-16T00:38:45.632Z,52.40
2023-03-16T00:41:15.798Z,52.30
2023-03-16T00:43:45.525Z,58.03
2023-03-16T00:46:18.666Z,53.88
2023-03-16T00:48:47.865Z,61.22
2023-03-16T00:51:18.756Z,58.20
2023-03-16T00:53:47.436Z,60.13
2023-03-16T00:56:16.625Z,54.22
2023-03-16T00:58:44.657Z,51.15
2023-03-16T01:01:17.126Z,51.47
2023-03-16T01:03:46.005Z,72.88
2023-03-16T01:06:17.699Z,53.75
2023-03-16T01:11:21.979Z,61.13
2023-03-16T01:13:54.555Z,56.08
2023-03-16T01:16:25.775Z,56.97
2023-03-16T01:18:54.932Z,47.22
2023-03-16T01:21:24.510Z,64.47
2023-03-16T01:23:53.961Z,59.75
2023-03-16T01:26:25.400Z,55.65
2023-03-16T01:28:54.600Z,61.50
2023-03-16T01:31:24.043Z,55.88
2023-03-16T01:33:52.427Z,57.58
2023-03-16T01:36:25.728Z,51.50
2023-03-16T01:39:00.523Z,59.70
2023-03-16T01:41:33.386Z,65.85
2023-03-16T01:44:01.549Z,50.10
2023-03-16T01:46:31.039Z,60.70
2023-03-16T01:49:27.093Z,53.50
2023-03-16T01:52:12.601Z,59.50
2023-03-16T01:55:13.884Z,67.13
2023-03-16T01:57:48.334Z,57.03
2023-03-16T02:00:23.647Z,56.63
2023-03-16T02:03:16.784Z,59.63
2023-03-16T02:06:03.449Z,58.28
2023-03-16T02:08:35.521Z,55.95
2023-03-16T02:11:05.762Z,57.57
2023-03-16T02:13:43.611Z,78.60
2023-03-16T02:16:14.586Z,61.67
2023-03-16T02:18:42.619Z,61.73
2023-03-16T02:21:20.885Z,67.80
2023-03-16T02:23:50.807Z,58.08
2023-03-16T02:26:48.087Z,63.45
2023-03-16T02:29:59.487Z,60.97
2023-03-16T02:32:31.973Z,74.00
2023-03-16T02:35:03.115Z,57.90
2023-03-16T02:37:34.064Z,76.72
2023-03-16T02:40:32.801Z,54.15
2023-03-16T02:43:22.946Z,53.90
2023-03-16T02:46:05.384Z,60.47
2023-03-16T02:49:05.940Z,67.32
2023-03-16T02:51:34.053Z,66.13
2023-03-16T02:54:02.072Z,55.10
2023-03-16T02:56:32.816Z,46.25
2023-03-16T02:59:01.528Z,57.33
2023-03-16T03:01:31.984Z,74.07
2023-03-16T03:03:59.901Z,60.13
2023-03-16T03:06:28.355Z,60.75
2023-03-16T03:08:56.814Z,51.72
2023-03-16T03:11:25.249Z,54.03
2023-03-16T03:13:53.282Z,49.42
2023-03-16T03:16:25.054Z,53.53
2023-03-16T03:18:53.292Z,50.00
2023-03-16T03:21:23.854Z,46.10
2023-03-16T03:23:52.555Z,50.15
2023-03-16T03:26:23.479Z,45.10
2023-03-16T03:31:23.259Z,54.80
2023-03-16T03:33:53.732Z,61.03
2023-03-16T03:36:24.355Z,55.25
2023-03-16T03:38:54.886Z,46.85
2023-03-16T03:41:23.778Z,58.67
2023-03-16T03:43:53.993Z,65.00
2023-03-16T03:46:22.066Z,59.42
2023-03-16T03:48:51.101Z,61.40
2023-03-16T03:51:19.765Z,63.97
2023-03-16T03:54:00.227Z,64.90
2023-03-16T03:56:40.230Z,67.13
2023-03-16T03:59:12.792Z,59.08
2023-03-16T04:02:16.985Z,65.03
2023-03-16T04:04:50.661Z,72.82
2023-03-16T04:07:19.333Z,63.60
2023-03-16T04:09:48.039Z,64.68
2023-03-16T04:12:26.770Z,62.60
2023-03-16T04:14:55.832Z,68.05
2023-03-16T04:17:26.268Z,74.97
2023-03-16T04:19:56.841Z,66.30
2023-03-16T04:22:25.741Z,74.03
2023-03-16T04:24:54.221Z,73.20
2023-03-16T04:27:24.088Z,80.05
2023-03-16T04:29:55.808Z,86.38
2023-03-16T04:32:26.606Z,88.15
2023-03-16T04:34:56.636Z,77.00
2023-03-16T04:37:34.827Z,72.10
2023-03-16T04:40:16.033Z,67.15
2023-03-16T04:42:48.636Z,53.33
2023-03-16T04:45:21.266Z,61.83
2023-03-16T04:50:21.697Z,65.18
2023-03-16T04:52:54.171Z,70.43
2023-03-16T04:55:23.218Z,69.60
2023-03-16T04:57:52.702Z,80.72
2023-03-16T05:00:23.828Z,67.82
2023-03-16T05:03:04.179Z,67.07
2023-03-16T05:05:32.432Z,76.75
2023-03-16T05:08:01.738Z,58.92
2023-03-16T05:10:34.137Z,69.18
2023-03-16T05:13:02.603Z,71.65
2023-03-16T05:15:30.655Z,77.90
2023-03-16T05:18:12.848Z,69.55
2023-03-16T05:20:42.745Z,65.43
2023-03-16T05:23:12.008Z,68.03
2023-03-16T05:25:49.111Z,79.38
2023-03-16T05:28:19.899Z,78.00
2023-03-16T05:30:55.302Z,75.50
2023-03-16T05:33:27.300Z,75.15
2023-03-16T05:36:08.934Z,68.88
2023-03-16T05:38:39.699Z,64.63
2023-03-16T05:41:11.102Z,52.28
2023-03-16T05:43:48.433Z,55.35
2023-03-16T05:46:20.671Z,66.22
2023-03-16T05:48:52.087Z,71.00
2023-03-16T05:51:22.930Z,63.15
2023-03-16T05:53:51.032Z,51.08
2023-03-16T05:56:29.818Z,63.35
2023-03-16T05:59:00.570Z,53.13
2023-03-16T06:01:29.378Z,61.00
2023-03-16T06:03:57.857Z,60.45
2023-03-16T06:06:28.977Z,63.42
2023-03-16T06:09:03.876Z,55.92
2023-03-16T06:11:33.069Z,60.35
2023-03-16T06:14:02.088Z,44.63
2023-03-16T06:16:30.409Z,54.92
2023-03-16T06:19:00.844Z,42.40
2023-03-16T06:21:30.758Z,53.20
2023-03-16T06:24:07.963Z,57.28
2023-03-16T06:26:37.695Z,56.60
2023-03-16T06:29:08.685Z,48.35
2023-03-16T06:31:39.202Z,47.40
2023-03-16T06:34:08.081Z,42.25
2023-03-16T06:36:39.328Z,47.28
2023-03-16T06:39:10.947Z,46.85
2023-03-16T06:41:42.993Z,41.85
2023-03-16T06:46:52.459Z,34.30
2023-03-16T06:49:21.694Z,41.70
2023-03-16T06:51:50.924Z,39.38
2023-03-16T06:54:20.155Z,38.40
2023-03-16T06:56:49.708Z,41.70
2023-03-16T06:59:17.942Z,38.72
2023-03-16T07:01:46.252Z,44.75
2023-03-16T07:04:14.560Z,42.13
2023-03-16T07:06:43.084Z,43.90
2023-03-16T07:09:13.501Z,31.83
2023-03-16T07:11:43.153Z,39.10
2023-03-16T07:14:11.979Z,34.78
2023-03-16T07:16:41.332Z,41.17
2023-03-16T07:19:11.669Z,36.78
2023-03-16T07:21:40.927Z,45.42
2023-03-16T07:24:16.873Z,35.13
2023-03-16T07:26:46.453Z,30.65
2023-03-16T07:29:26.597Z,31.10
2023-03-16T07:31:55.575Z,26.80
2023-03-16T07:34:30.030Z,36.58
2023-03-16T07:36:59.975Z,26.40
2023-03-16T07:39:31.944Z,26.10
2023-03-16T07:42:08.106Z,28.00
2023-03-16T07:44:58.863Z,22.30
2023-03-16T07:47:27.561Z,22.95
2023-03-16T07:50:02.626Z,24.52
2023-03-16T07:52:31.394Z,31.73
2023-03-16T07:54:59.839Z,27.80
2023-03-16T07:57:28.303Z,29.58
2023-03-16T07:59:56.509Z,37.03
2023-03-16T08:02:24.657Z,34.17
2023-03-16T08:04:54.333Z,28.65
2023-03-16T08:07:23.108Z,55.50
2023-03-16T08:09:59.721Z,45.25
2023-03-16T08:12:34.207Z,44.75
2023-03-16T08:15:03.419Z,38.00
2023-03-16T08:17:41.960Z,42.95
2023-03-16T08:20:16.043Z,52.45
2023-03-16T08:22:46.789Z,47.08
2023-03-16T08:27:40.936Z,53.80
2023-03-16T08:30:12.748Z,42.63
2023-03-16T08:32:46.245Z,42.47
2023-03-16T08:35:16.821Z,38.15
2023-03-16T08:40:16.433Z,39.05
2023-03-16T08:42:50.374Z,154.25
2023-03-16T08:45:20.816Z,38.35
2023-03-16T08:47:50.763Z,28.13
2023-03-16T08:50:20.074Z,22.45
2023-03-16T08:52:49.234Z,23.23
2023-03-16T08:55:17.659Z,33.53
2023-03-16T08:57:46.751Z,32.83
2023-03-16T09:00:15.702Z,27.52
2023-03-16T09:02:44.821Z,27.95
2023-03-16T09:05:16.145Z,29.10
2023-03-16T09:07:44.498Z,21.00
2023-03-16T09:10:16.496Z,26.90
2023-03-16T09:12:45.997Z,23.98
2023-03-16T09:15:14.421Z,21.35
2023-03-16T09:17:43.907Z,22.70
2023-03-16T09:20:34.737Z,26.27
2023-03-16T09:23:03.774Z,24.08
2023-03-16T09:25:32.799Z,22.30
2023-03-16T09:28:01.296Z,28.20
2023-03-16T09:30:30.526Z,32.92
2023-03-16T09:32:59.792Z,29.33
2023-03-16T09:35:28.301Z,20.98
2023-03-16T09:38:06.661Z,28.92
2023-03-16T09:40:37.464Z,30.33
2023-03-16T09:43:49.513Z,23.70
2023-03-16T09:46:47.578Z,23.45
2023-03-16T09:49:24.160Z,28.48
2023-03-16T09:52:24.781Z,33.85
2023-03-16T09:55:35.042Z,27.10
2023-03-16T09:58:14.108Z,22.75
2023-03-16T10:01:11.356Z,24.10
2023-03-16T10:04:00.374Z,18.60
2023-03-16T10:06:29.251Z,18.35
2023-03-16T10:09:26.416Z,21.27
2023-03-16T10:11:58.140Z,22.27
2023-03-16T10:17:50.243Z,23.73
2023-03-16T10:20:23.231Z,20.10
2023-03-16T10:22:54.475Z,23.15
2023-03-16T10:25:47.302Z,20.15
2023-03-16T10:28:25.688Z,28.65
2023-03-16T10:30:58.300Z,27.10
2023-03-16T10:33:31.622Z,31.25
2023-03-16T10:36:31.450Z,19.77
2023-03-16T10:39:06.194Z,27.15
2023-03-16T10:41:43.394Z,27.75
2023-03-16T10:44:27.333Z,27.92
2023-03-16T10:47:03.900Z,26.02
2023-03-16T10:49:48.872Z,30.48
2023-03-16T10:52:42.848Z,24.27
2023-03-16T10:55:41.225Z,21.00
2023-03-16T10:58:10.171Z,23.05
2023-03-16T11:00:43.612Z,26.27
2023-03-16T11:03:25.533Z,20.77
2023-03-16T11:06:04.910Z,23.27
2023-03-16T11:08:42.471Z,28.25
2023-03-16T11:11:27.562Z,21.17
2023-03-16T11:14:03.478Z,25.48
2023-03-16T11:16:40.234Z,29.92
2023-03-16T11:19:34.194Z,23.90
2023-03-16T11:22:16.267Z,27.33
2023-03-16T11:25:03.169Z,23.33
2023-03-16T11:27:47.074Z,28.30
2023-03-16T11:30:31.362Z,21.75
2023-03-16T11:33:00.809Z,19.67
2023-03-16T11:36:28.551Z,20.08
2023-03-16T11:39:34.425Z,22.80
2023-03-16T11:43:00.394Z,21.25
2023-03-16T11:46:24.916Z,22.45
2023-03-16T11:49:02.715Z,17.77
2023-03-16T11:51:57.193Z,15.80
2023-03-16T11:54:56.302Z,15.50
2023-03-16T11:58:04.330Z,10.10
2023-03-16T12:00:58.011Z,14.68
2023-03-16T12:03:38.186Z,17.83
2023-03-16T12:06:53.551Z,19.40
2023-03-16T12:09:52.438Z,20.33
2023-03-16T12:12:34.787Z,16.05
2023-03-16T12:15:36.725Z,12.88
2023-03-16T12:18:45.435Z,21.38
2023-03-16T12:21:34.214Z,18.23
2023-03-16T12:24:12.471Z,19.25
2023-03-16T12:26:43.026Z,27.05
2023-03-16T12:29:34.411Z,15.27
2023-03-16T12:32:37.700Z,16.98
2023-03-16T12:36:04.127Z,18.42
2023-03-16T12:39:07.091Z,21.48
2023-03-16T12:41:38.480Z,23.17
2023-03-16T12:44:27.316Z,15.35
2023-03-16T12:47:04.914Z,21.60
2023-03-16T12:49:37.346Z,31.40
2023-03-16T12:52:15.758Z,30.20
2023-03-16T12:54:52.698Z,22.27
2023-03-16T12:57:27.521Z,20.65
2023-03-16T13:00:00.898Z,20.33
2023-03-16T13:02:36.116Z,28.75
2023-03-16T13:05:29.359Z,22.77
2023-03-16T13:08:16.608Z,27.83
2023-03-16T13:11:10.015Z,18.83
2023-03-16T13:14:09.297Z,17.92
2023-03-16T13:16:44.106Z,30.13
2023-03-16T13:19:40.310Z,26.05
2023-03-16T13:22:30.735Z,26.88
2023-03-16T13:25:23.192Z,22.77
2023-03-16T13:27:56.019Z,16.40
2023-03-16T13:30:35.502Z,18.17
2023-03-16T13:33:18.429Z,15.32
2023-03-16T13:35:50.291Z,17.00
2023-03-16T13:38:23.405Z,12.68
2023-03-16T13:40:55.731Z,14.30
2023-03-16T13:43:33.027Z,16.20
2023-03-16T13:46:01.742Z,18.48
2023-03-16T13:48:30.103Z,21.05
2023-03-16T13:50:58.905Z,16.42
2023-03-16T13:53:33.180Z,18.30
2023-03-16T13:56:02.866Z,18.65
2023-03-16T13:58:36.054Z,24.95
2023-03-16T14:01:16.108Z,17.20
2023-03-16T14:03:45.581Z,14.38
2023-03-16T14:06:31.639Z,14.20
2023-03-16T14:09:04.730Z,17.50
2023-03-16T14:11:33.224Z,25.38
2023-03-16T14:14:13.590Z,15.65
2023-03-16T14:16:42.657Z,27.60
2023-03-16T14:19:32.641Z,23.88
2023-03-16T14:22:07.145Z,50.45
2023-03-16T14:24:39.560Z,61.80
2023-03-16T14:27:28.944Z,32.67
2023-03-16T14:30:18.567Z,47.72
2023-03-16T14:33:04.749Z,29.90
2023-03-16T14:35:43.027Z,32.90
2023-03-16T14:38:35.440Z,38.00
2023-03-16T14:41:09.859Z,27.55
2023-03-16T14:43:51.697Z,32.78
2023-03-16T14:49:29.492Z,20.48
2023-03-16T14:52:27.545Z,24.88
2023-03-16T14:54:55.830Z,21.05
2023-03-16T14:57:26.067Z,19.05
2023-03-16T14:59:55.073Z,13.18
2023-03-16T15:02:32.634Z,19.17
2023-03-16T15:05:24.074Z,16.38
2023-03-16T15:07:55.717Z,29.45
2023-03-16T15:10:36.491Z,17.05
2023-03-16T15:13:53.346Z,14.13
2023-03-16T15:16:24.039Z,13.88
2023-03-16T15:19:43.428Z,14.00
2023-03-16T15:22:14.166Z,11.63
2023-03-16T15:24:42.811Z,13.40
2023-03-16T15:27:26.039Z,17.38
2023-03-16T15:29:54.144Z,19.15
2023-03-16T15:32:24.191Z,27.52
2023-03-16T15:34:53.850Z,27.73
2023-03-16T15:37:24.655Z,23.85
2023-03-16T15:39:53.633Z,24.17
2023-03-16T15:42:23.324Z,27.02
2023-03-16T15:44:52.683Z,28.08
2023-03-16T15:47:24.206Z,23.50
2023-03-16T15:49:53.937Z,24.13
2023-03-16T15:52:32.775Z,31.80
2023-03-16T15:55:08.265Z,26.25
2023-03-16T15:57:36.834Z,32.28
2023-03-16T16:00:06.223Z,30.80
2023-03-16T16:02:35.741Z,24.85
2023-03-16T16:05:04.564Z,23.85
2023-03-16T16:07:32.625Z,26.90
2023-03-16T16:10:02.403Z,26.80
2023-03-16T16:12:32.690Z,30.50
2023-03-16T16:15:00.838Z,28.65
2023-03-16T16:17:45.817Z,31.60
2023-03-16T16:20:32.232Z,37.83
2023-03-16T16:23:03.091Z,37.78
2023-03-16T16:25:42.271Z,46.28
2023-03-16T16:28:22.466Z,33.65
2023-03-16T16:30:54.183Z,33.20
2023-03-16T16:33:23.157Z,36.58
2023-03-16T16:35:53.416Z,40.10
2023-03-16T16:38:23.009Z,36.45
2023-03-16T16:40:53.222Z,35.55
2023-03-16T16:43:47.114Z,31.65
2023-03-16T16:46:20.052Z,35.60
2023-03-16T16:49:05.399Z,40.92
2023-03-16T16:51:34.590Z,57.75
2023-03-16T16:54:10.769Z,30.48
2023-03-16T16:56:39.776Z,43.13
2023-03-16T16:59:20.393Z,32.42
2023-03-16T17:01:52.670Z,41.22
2023-03-16T17:04:25.705Z,33.72
2023-03-16T17:07:02.250Z,42.90
2023-03-16T17:09:32.314Z,43.00
2023-03-16T17:12:02.420Z,50.38
2023-03-16T17:14:31.746Z,58.30
2023-03-16T17:17:02.905Z,51.45
2023-03-16T17:19:31.739Z,55.35
2023-03-16T17:22:00.468Z,64.07
2023-03-16T17:24:29.918Z,80.47
2023-03-16T17:27:00.859Z,74.88
2023-03-16T17:29:33.818Z,75.28
2023-03-16T17:32:08.470Z,71.88
2023-03-16T17:34:36.630Z,76.78
2023-03-16T17:37:07.339Z,85.07
2023-03-16T17:39:35.736Z,86.07
2023-03-16T17:42:14.144Z,74.97
2023-03-16T17:44:51.786Z,81.75
2023-03-16T17:47:26.760Z,56.38
2023-03-16T17:49:57.293Z,85.05
2023-03-16T17:52:29.585Z,101.20
2023-03-16T17:54:58.086Z,99.50
2023-03-16T17:57:33.771Z,108.05
2023-03-16T18:00:09.424Z,110.45
2023-03-16T18:03:04.241Z,113.07
2023-03-16T18:05:36.862Z,109.05
2023-03-16T18:08:26.093Z,142.30
2023-03-16T18:11:05.319Z,116.75
2023-03-16T18:13:37.898Z,93.70
2023-03-16T18:16:15.202Z,81.72
2023-03-16T18:18:43.697Z,74.28
2023-03-16T18:21:24.972Z,79.50
2023-03-16T18:23:54.208Z,73.68
2023-03-16T18:26:24.241Z,75.32
2023-03-16T18:28:53.909Z,64.65
2023-03-16T18:31:26.671Z,67.72
2023-03-16T18:34:01.352Z,69.43
2023-03-16T18:36:36.512Z,94.65
2023-03-16T18:39:13.193Z,87.07
2023-03-16T18:41:41.836Z,86.65
2023-03-16T18:44:26.342Z,78.85
2023-03-16T18:47:02.131Z,81.47
2023-03-16T18:49:37.701Z,86.68
2023-03-16T18:52:23.798Z,77.15
2023-03-16T18:54:53.479Z,86.88
2023-03-16T18:57:28.227Z,72.93
2023-03-16T18:59:57.283Z,83.25
2023-03-16T19:02:39.319Z,77.57
2023-03-16T19:08:01.302Z,73.93
2023-03-16T19:10:36.066Z,81.85
2023-03-16T19:13:11.168Z,75.65
2023-03-16T19:15:39.904Z,93.90
2023-03-16T19:18:08.323Z,95.15
2023-03-16T19:20:42.443Z,96.32
2023-03-16T19:23:50.659Z,103.07
2023-03-16T19:26:19.802Z,90.97
2023-03-16T19:28:52.136Z,107.43
2023-03-16T19:31:28.918Z,107.60
2023-03-16T19:33:58.874Z,130.73
2023-03-16T19:36:31.143Z,139.30
2023-03-16T19:38:59.958Z,182.30
2023-03-16T19:41:36.163Z,170.13
2023-03-16T19:44:27.368Z,140.15
2023-03-16T19:46:56.531Z,141.70
2023-03-16T19:49:27.304Z,203.73
2023-03-16T19:51:56.532Z,257.88
2023-03-16T19:54:28.489Z,274.30
2023-03-16T19:57:00.318Z,200.55
2023-03-16T20:02:01.756Z,149.63
2023-03-16T20:04:30.789Z,142.07
2023-03-16T20:06:59.192Z,140.45
2023-03-16T20:09:28.018Z,149.18
2023-03-16T20:11:56.887Z,131.98
2023-03-16T20:14:33.768Z,121.32
2023-03-16T20:17:02.480Z,113.65
2023-03-16T20:19:30.814Z,139.15
2023-03-16T20:21:59.589Z,139.68
2023-03-16T20:24:29.078Z,113.22
2023-03-16T20:26:57.819Z,127.25
2023-03-16T20:29:32.310Z,101.47
2023-03-16T20:32:02.626Z,91.15
2023-03-16T20:34:32.762Z,126.20
2023-03-16T20:37:01.562Z,82.88
2023-03-16T20:39:30.578Z,81.57
2023-03-16T20:41:59.238Z,88.32
2023-03-16T20:44:30.626Z,83.32
2023-03-16T20:46:59.088Z,83.05
2023-03-16T20:49:37.036Z,115.53
2023-03-16T20:52:25.371Z,126.97
2023-03-16T20:54:54.185Z,100.57
2023-03-16T20:57:26.390Z,102.75
2023-03-16T20:59:55.700Z,112.97
2023-03-16T21:02:35.427Z,123.13
2023-03-16T21:05:07.466Z,125.10
2023-03-16T21:07:37.347Z,130.23
2023-03-16T21:10:05.874Z,138.45
2023-03-16T21:12:39.760Z,131.93
2023-03-16T21:15:31.465Z,156.55
2023-03-16T21:18:05.208Z,148.05
2023-03-16T21:20:36.252Z,129.68
2023-03-16T21:23:05.567Z,144.32
2023-03-16T21:25:41.204Z,157.45
2023-03-16T21:28:12.687Z,133.20
2023-03-16T21:30:51.854Z,150.60
2023-03-16T21:33:35.931Z,151.13
2023-03-16T21:36:10.405Z,142.73
2023-03-16T21:38:38.688Z,147.65
2023-03-16T21:41:07.682Z,159.68
2023-03-16T21:43:36.519Z,181.68
2023-03-16T21:46:07.232Z,144.60
2023-03-16T21:48:41.696Z,145.90
2023-03-16T21:51:20.998Z,136.63
2023-03-16T21:53:50.234Z,151.80
2023-03-16T21:56:25.505Z,145.45
2023-03-16T21:58:54.943Z,152.93
2023-03-16T22:01:30.602Z,153.27
2023-03-16T22:04:08.856Z,136.88
2023-03-16T22:06:37.878Z,152.95
2023-03-16T22:09:15.004Z,154.70
2023-03-16T22:11:43.215Z,135.20
2023-03-16T22:14:11.535Z,146.90
2023-03-16T22:16:40.275Z,144.45
2023-03-16T22:19:15.997Z,155.25
2023-03-16T22:21:47.378Z,136.93
2023-03-16T22:24:25.688Z,141.13
2023-03-16T22:26:54.947Z,141.90
2023-03-16T22:29:33.619Z,146.10
2023-03-16T22:32:12.799Z,147.43
2023-03-16T22:34:53.805Z,162.70
2023-03-16T22:37:26.768Z,156.10
2023-03-16T22:39:57.488Z,164.43
2023-03-16T22:42:39.515Z,145.90
2023-03-16T22:45:25.944Z,159.43
2023-03-16T22:47:56.970Z,156.23
2023-03-16T22:50:29.037Z,162.93
2023-03-16T22:53:02.149Z,169.02
2023-03-16T22:55:39.485Z,175.23
2023-03-16T22:58:18.048Z,169.02
2023-03-16T23:00:46.807Z,175.70
2023-03-16T23:03:25.089Z,154.15
2023-03-16T23:05:53.864Z,155.13
2023-03-16T23:08:24.084Z,156.07
2023-03-16T23:10:53.994Z,158.02
2023-03-16T23:13:25.908Z,165.18
2023-03-16T23:15:55.535Z,189.23
2023-03-16T23:18:27.145Z,164.57
2023-03-16T23:20:55.162Z,187.82
2023-03-16T23:23:26.787Z,183.02
2023-03-16T23:25:54.769Z,171.27
2023-03-16T23:28:24.683Z,175.60
2023-03-16T23:30:52.934Z,164.25
2023-03-16T23:33:21.930Z,141.07
2023-03-16T23:35:50.852Z,157.02
2023-03-16T23:38:19.294Z,153.07
2023-03-16T23:40:47.341Z,143.05
2023-03-16T23:43:16.223Z,144.20
2023-03-16T23:45:47.057Z,118.78
2023-03-16T23:48:21.472Z,136.80
2023-03-16T23:50:55.474Z,139.63
2023-03-16T23:53:25.626Z,151.77
2023-03-16T23:55:53.617Z,135.90
2023-03-16T23:58:22.015Z,152.95
